Time;durP1;ratioP1;P1;durP2;ratioP2;P2;SDS_P1;SDS_P2;PMS_P1;PMS_P2;Temp;Humidity;BMP_temperature;BMP_pressure;BME280_temperature;BME280_humidity;BME280_pressure;Samples;Min_cycle;Max_cycle;Signal;HPM_P1;HPM_P2
2021/01/26 00:01:23;;;;;;;10.63;5.20;;;;;;;4.35;100.00;99547.25;1743483;80;21241;-88
2021/01/26 00:03:51;;;;;;;11.33;5.20;;;;;;;4.36;100.00;99554.06;1776719;79;21195;-89
2021/01/26 00:06:19;;;;;;;10.85;5.45;;;;;;;4.38;100.00;99550.89;1776995;79;21633;-88
2021/01/26 00:08:48;;;;;;;12.78;5.42;;;;;;;4.38;100.00;99552.19;1814331;79;21154;-88
2021/01/26 00:11:16;;;;;;;10.68;4.95;;;;;;;4.46;100.00;99544.41;1814041;79;21744;-88
2021/01/26 00:13:43;;;;;;;11.68;5.20;;;;;;;4.57;100.00;99548.39;1814358;79;21551;-88
2021/01/26 00:16:11;;;;;;;6.87;4.28;;;;;;;4.67;100.00;99536.98;1814361;79;22269;-88
2021/01/26 00:18:39;;;;;;;7.22;4.50;;;;;;;4.74;100.00;99548.53;1812901;79;21114;-89
2021/01/26 00:21:08;;;;;;;8.48;4.47;;;;;;;4.86;100.00;99537.84;1803336;79;21114;-88
2021/01/26 00:23:36;;;;;;;8.00;3.98;;;;;;;4.86;100.00;99537.84;1803368;78;21555;-89
2021/01/26 00:26:04;;;;;;;10.43;4.53;;;;;;;4.90;100.00;99526.39;1803180;78;21044;-89
2021/01/26 00:28:32;;;;;;;10.10;4.50;;;;;;;4.96;100.00;99534.19;1803310;79;21361;-89
2021/01/26 00:31:00;;;;;;;7.28;4.65;;;;;;;4.96;100.00;99532.42;1803167;78;21211;-88
2021/01/26 00:33:28;;;;;;;8.10;3.95;;;;;;;5.01;100.00;99529.05;1803354;79;21230;-89
2021/01/26 00:35:56;;;;;;;5.47;4.17;;;;;;;5.06;100.00;99537.76;1803965;78;21178;-89
2021/01/26 00:38:24;;;;;;;10.80;4.58;;;;;;;5.12;100.00;99537.36;1780787;79;21426;-89
2021/01/26 00:40:52;;;;;;;10.38;4.58;;;;;;;5.12;100.00;99537.36;1774074;79;21355;-89
2021/01/26 00:43:20;;;;;;;9.60;4.58;;;;;;;5.15;100.00;99535.83;1800096;78;21203;-89
2021/01/26 00:45:48;;;;;;;8.05;4.60;;;;;;;5.17;100.00;99543.01;1808779;78;21147;-89
2021/01/26 00:48:16;;;;;;;7.62;5.00;;;;;;;5.20;100.00;99541.97;1782056;79;21136;-89
2021/01/26 00:50:44;;;;;;;9.20;4.55;;;;;;;5.21;100.00;99543.14;1773289;79;21544;-89
2021/01/26 00:53:14;;;;;;;9.88;4.08;;;;;;;5.22;100.00;99545.27;1808604;77;21257;-89
2021/01/26 00:55:54;;;;;;;11.15;4.17;;;;;;;5.22;100.00;99545.27;1807089;79;21179;-89
2021/01/26 00:58:22;;;;;;;5.75;3.55;;;;;;;5.19;100.00;99542.89;1786108;78;21158;-89
2021/01/26 01:00:50;;;;;;;9.20;3.58;;;;;;;5.15;100.00;99557.77;1780339;80;21160;-89
2021/01/26 01:03:19;;;;;;;6.87;4.00;;;;;;;5.11;100.00;99559.37;1773115;78;21219;-89
2021/01/26 01:05:47;;;;;;;6.97;3.65;;;;;;;5.05;100.00;99555.45;1775158;80;21357;-88
2021/01/26 01:08:15;;;;;;;8.35;3.37;;;;;;;5.00;100.00;99558.38;1803065;79;21142;-89
2021/01/26 01:10:44;;;;;;;6.25;3.40;;;;;;;4.95;100.00;99549.30;1814506;78;21520;-89
2021/01/26 01:13:12;;;;;;;6.28;3.30;;;;;;;4.87;100.00;99564.00;1807840;79;21032;-89
2021/01/26 01:15:40;;;;;;;8.98;3.33;;;;;;;4.78;100.00;99568.48;1803355;79;21037;-89
2021/01/26 01:18:10;;;;;;;6.17;3.02;;;;;;;4.70;100.00;99576.77;1803415;78;21359;-88
2021/01/26 01:20:39;;;;;;;8.23;3.95;;;;;;;4.60;100.00;99570.11;1803283;79;21122;-89
2021/01/26 01:23:07;;;;;;;8.28;3.80;;;;;;;4.55;100.00;99582.02;1808698;78;21705;-89
2021/01/26 01:25:35;;;;;;;5.47;3.45;;;;;;;4.49;100.00;99595.30;1808624;79;21131;-89
2021/01/26 01:28:04;;;;;;;6.55;3.72;;;;;;;4.46;100.00;99606.27;1787740;78;21072;-88
2021/01/26 01:30:35;;;;;;;6.62;3.70;;;;;;;4.40;100.00;99601.89;1774645;79;21354;-89
2021/01/26 01:33:05;;;;;;;6.30;4.10;;;;;;;4.37;100.00;99607.23;1774793;79;21147;-89
2021/01/26 01:35:34;;;;;;;9.48;4.03;;;;;;;4.33;100.00;99609.67;1783623;79;21559;-89
2021/01/26 01:38:02;;;;;;;12.93;4.58;;;;;;;4.31;100.00;99615.38;1802091;77;21132;-89
2021/01/26 01:40:33;;;;;;;10.90;4.65;;;;;;;4.31;100.00;99624.88;1808728;79;21120;-89
2021/01/26 01:43:01;;;;;;;8.15;4.28;;;;;;;4.29;100.00;99625.42;1808910;79;21348;-88
2021/01/26 01:45:29;;;;;;;9.38;4.80;;;;;;;4.27;100.00;99638.42;1808638;77;21103;-89
2021/01/26 01:48:15;;;;;;;7.65;4.30;;;;;;;4.25;100.00;99639.79;1789810;79;21553;-89
2021/01/26 01:50:48;;;;;;;11.68;4.85;;;;;;;4.24;100.00;99638.61;1771783;80;21069;-89
2021/01/26 01:53:36;;;;;;;8.15;4.55;;;;;;;4.24;100.00;99639.89;1773696;79;21195;-88
2021/01/26 01:56:12;;;;;;;9.30;5.33;;;;;;;4.24;100.00;99645.89;1773744;79;21238;-87
2021/01/26 01:58:51;;;;;;;13.38;5.15;;;;;;;4.26;100.00;99652.23;1803988;79;21181;-88
2021/01/26 02:01:20;;;;;;;9.78;4.62;;;;;;;4.26;100.00;99653.52;1810468;79;21098;-89
2021/01/26 02:03:52;;;;;;;7.95;4.28;;;;;;;4.23;100.00;99656.28;1814317;79;21151;-89
2021/01/26 02:06:25;;;;;;;9.38;4.75;;;;;;;4.22;100.00;99660.63;1814455;78;21134;-88
2021/01/26 02:09:09;;;;;;;6.12;3.42;;;;;;;4.21;100.00;99667.98;1779013;78;21356;-88
2021/01/26 02:11:37;;;;;;;5.60;3.58;;;;;;;4.20;100.00;99662.94;1774699;79;21119;-88
2021/01/26 02:14:05;;;;;;;4.97;3.45;;;;;;;4.17;100.00;99669.56;1774852;80;21160;-88
2021/01/26 02:16:48;;;;;;;5.72;3.30;;;;;;;4.14;100.00;99663.30;1772611;80;21303;-88
2021/01/26 02:19:59;;;;;;;5.92;3.67;;;;;;;4.12;100.00;99672.91;1774851;80;21175;-88
2021/01/26 02:23:12;;;;;;;5.55;3.87;;;;;;;4.07;100.00;99674.00;1772873;80;21350;-88
2021/01/26 02:26:16;;;;;;;8.00;3.80;;;;;;;4.04;100.00;99684.52;1774320;79;21536;-88
2021/01/26 02:28:59;;;;;;;6.53;4.35;;;;;;;4.02;100.00;99685.07;1805082;79;21554;-88
2021/01/26 02:31:38;;;;;;;6.80;3.98;;;;;;;4.01;100.00;99676.97;1809300;77;21171;-89
2021/01/26 02:35:02;;;;;;;5.42;3.62;;;;;;;4.00;100.00;99692.06;1809393;77;21146;-88
2021/01/26 02:38:09;;;;;;;10.38;4.92;;;;;;;4.00;100.00;99704.13;1808440;77;22060;-88
2021/01/26 02:40:51;;;;;;;8.90;4.12;;;;;;;3.98;100.00;99706.78;1808780;77;21167;-88
2021/01/26 02:43:46;;;;;;;7.25;4.45;;;;;;;3.95;100.00;99716.00;1809386;78;21166;-88
2021/01/26 02:46:35;;;;;;;7.53;5.15;;;;;;;3.94;100.00;99729.80;1805819;77;21160;-88
2021/01/26 02:49:50;;;;;;;4.80;2.98;;;;;;;3.91;100.00;99740.28;1805791;78;21135;-88
2021/01/26 02:52:32;;;;;;;3.65;2.22;;;;;;;3.86;100.00;99748.77;1808951;79;21361;-88
2021/01/26 02:55:04;;;;;;;;;;;;;;;3.77;100.00;99757.41;1811514;79;21132;-88
2021/01/26 02:57:55;;;;;;;1.75;1.65;;;;;;;3.70;100.00;99774.16;1796762;77;20212;-88
2021/01/26 03:00:30;;;;;;;2.37;2.10;;;;;;;3.63;100.00;99788.31;1772859;79;21077;-88
2021/01/26 03:03:27;;;;;;;2.58;2.10;;;;;;;3.54;100.00;99799.16;1773973;79;21580;-88
2021/01/26 03:06:17;;;;;;;3.47;2.08;;;;;;;3.44;100.00;99800.97;1774760;79;21354;-88
2021/01/26 03:09:09;;;;;;;2.10;1.90;;;;;;;3.37;100.00;99812.98;1778310;79;21174;-88
2021/01/26 03:11:57;;;;;;;3.35;2.20;;;;;;;3.29;100.00;99813.45;1808897;77;21528;-88
2021/01/26 03:14:46;;;;;;;2.47;2.12;;;;;;;3.22;100.00;99811.67;1792533;77;21134;-88
2021/01/26 03:17:35;;;;;;;2.95;2.40;;;;;;;3.17;100.00;99804.69;1808847;77;21128;-88
2021/01/26 03:20:14;;;;;;;3.92;2.10;;;;;;;3.13;100.00;99823.77;1812593;79;21367;-88
2021/01/26 03:22:49;;;;;;;1.77;1.67;;;;;;;3.08;100.00;99812.48;1810677;77;21123;-89
2021/01/26 03:25:21;;;;;;;4.47;1.70;;;;;;;3.04;100.00;99817.89;1807943;79;21124;-89
2021/01/26 03:27:53;;;;;;;1.90;1.70;;;;;;;2.98;100.00;99835.77;1798815;79;21187;-89
2021/01/26 03:30:26;;;;;;;2.50;2.02;;;;;;;2.94;100.00;99836.41;1765264;80;21137;-89
2021/01/26 03:33:02;;;;;;;3.60;2.30;;;;;;;2.92;100.00;99816.83;1780515;79;21429;-89
2021/01/26 03:35:31;;;;;;;3.45;2.35;;;;;;;2.89;100.00;99836.28;1778903;80;21177;-89
2021/01/26 03:38:12;;;;;;;4.28;2.00;;;;;;;2.84;100.00;99854.06;1791550;77;21194;-89
2021/01/26 03:40:40;;;;;;;;;;;;;;;2.79;100.00;99851.39;1813026;78;21143;-87
2021/01/26 03:43:09;;;;;;;3.58;2.45;;;;;;;2.74;100.00;99870.93;1814503;79;20214;-90
2021/01/26 03:45:37;;;;;;;3.83;2.60;;;;;;;2.69;100.00;99881.90;1814456;79;21252;-87
2021/01/26 03:48:47;;;;;;;3.70;3.17;;;;;;;2.64;100.00;99894.19;1816559;77;21186;-88
2021/01/26 03:51:39;;;;;;;3.72;2.67;;;;;;;2.61;100.00;99891.77;1817846;77;21190;-88
2021/01/26 03:54:33;;;;;;;3.27;2.37;;;;;;;2.55;100.00;99908.37;1808779;77;21611;-89
2021/01/26 03:57:46;;;;;;;2.72;2.50;;;;;;;2.52;100.00;99922.19;1808910;77;21160;-89
2021/01/26 04:00:37;;;;;;;4.22;2.50;;;;;;;2.49;100.00;99928.79;1808810;77;21354;-89
2021/01/26 04:03:58;;;;;;;4.08;2.85;;;;;;;2.48;100.00;99930.98;1808821;79;21548;-88
2021/01/26 04:06:40;;;;;;;4.20;3.17;;;;;;;2.48;100.00;99941.73;1808866;79;21143;-88
2021/01/26 04:09:14;;;;;;;4.37;3.02;;;;;;;2.49;100.00;99954.49;1809515;78;21142;-88
2021/01/26 04:11:57;;;;;;;3.50;2.72;;;;;;;2.50;100.00;99964.30;1809070;79;21079;-88
2021/01/26 04:15:00;;;;;;;5.00;3.05;;;;;;;2.48;100.00;99965.68;1804513;79;21196;-88
2021/01/26 04:21:04;;;;;;;7.40;4.10;;;;;;;2.43;100.00;99995.94;1774445;80;21140;-89
2021/01/26 04:27:58;;;;;;;7.92;3.98;;;;;;;2.29;100.00;100010.76;1759231;78;21154;-88
2021/01/26 04:34:30;;;;;;;5.15;3.70;;;;;;;2.16;100.00;100020.81;1773890;80;21124;-88
2021/01/26 04:40:57;;;;;;;7.70;4.90;;;;;;;2.07;100.00;100030.25;1771012;80;21588;-89
2021/01/26 04:44:12;;;;;;;5.78;4.22;;;;;;;2.04;100.00;100050.50;1773665;80;21152;-88
2021/01/26 04:56:00;;;;;;;7.10;3.75;;;;;;;1.97;100.00;100073.54;1774381;80;21129;-88
2021/01/26 05:06:51;;;;;;;7.58;4.03;;;;;;;1.94;100.00;100094.68;1764983;81;21133;-88
2021/01/26 05:22:52;;;;;;;7.47;3.90;;;;;;;1.87;100.00;100102.69;1775233;80;21204;-87
2021/01/26 05:25:27;;;;;;;7.03;3.92;;;;;;;1.86;100.00;100129.26;1775959;80;21551;-87
2021/01/26 05:28:30;;;;;;;6.05;3.80;;;;;;;1.84;100.00;100136.66;1790384;79;21159;-87
2021/01/26 05:31:07;;;;;;;6.33;4.40;;;;;;;1.81;100.00;100140.17;1772687;80;21132;-87
2021/01/26 05:33:37;;;;;;;5.35;4.00;;;;;;;1.80;100.00;100147.52;1751000;80;37755;-90
2021/01/26 05:44:21;;;;;;;5.85;4.42;;;;;;;1.81;100.00;100172.73;1793520;78;21569;-90
2021/01/26 05:47:25;;;;;;;4.90;3.67;;;;;;;1.82;100.00;100188.06;1796370;79;21141;-91
2021/01/26 05:54:21;;;;;;;5.17;4.10;;;;;;;1.84;100.00;100202.95;1731752;82;21144;-90
2021/01/26 06:01:27;;;;;;;6.60;4.75;;;;;;;1.85;100.00;100229.45;1730863;82;21156;-90
2021/01/26 06:12:55;;;;;;;10.08;5.35;;;;;;;1.84;100.00;100249.17;1809425;79;21155;-90
2021/01/26 06:24:26;;;;;;;5.03;4.17;;;;;;;1.95;100.00;100276.11;1791849;78;21112;-90
2021/01/26 06:31:52;;;;;;;7.12;3.45;;;;;;;2.00;100.00;100312.69;1809406;79;21191;-89
2021/01/26 06:38:55;;;;;;;5.75;3.72;;;;;;;2.14;100.00;100324.46;1762111;81;21585;-90
2021/01/26 06:42:11;;;;;;;8.25;3.77;;;;;;;2.36;100.00;100336.36;1762204;81;21169;-91
2021/01/26 06:45:05;;;;;;;9.03;4.15;;;;;;;2.50;100.00;100339.13;1762451;81;21542;-90
2021/01/26 06:48:14;;;;;;;9.45;4.33;;;;;;;2.55;100.00;100340.64;1761223;81;21467;-90
2021/01/26 06:51:14;;;;;;;8.33;4.47;;;;;;;2.58;100.00;100349.05;1767507;78;21362;-90
2021/01/26 06:54:25;;;;;;;5.75;4.03;;;;;;;2.63;100.00;100355.27;1776371;78;21152;-89
2021/01/26 06:57:26;;;;;;;8.80;4.00;;;;;;;2.63;100.00;100365.55;1776907;78;21137;-89
2021/01/26 07:04:41;;;;;;;8.30;4.17;;;;;;;2.54;100.00;100356.53;1765076;81;21139;-90
2021/01/26 07:24:06;;;;;;;4.97;3.50;;;;;;;2.62;100.00;100377.59;1767847;79;21170;-91
2021/01/26 07:35:54;;;;;;;3.12;2.83;;;;;;;2.46;100.00;100392.85;1724555;81;21141;-92
2021/01/26 07:51:14;;;;;;;5.50;3.10;;;;;;;2.58;100.00;100439.03;1712015;81;21136;-92
2021/01/26 08:02:30;;;;;;;;;;;;;;;2.67;100.00;100478.47;1726258;82;21616;-91
2021/01/26 08:09:07;;;;;;;3.50;3.00;;;;;;;2.73;100.00;100470.95;1743057;81;21131;-94
2021/01/26 08:16:13;;;;;;;3.90;3.22;;;;;;;2.78;100.00;100490.84;1760691;80;21128;-93
2021/01/26 08:27:45;;;;;;;4.05;3.30;;;;;;;2.95;100.00;100499.11;1742840;80;21157;-93
2021/01/26 08:39:08;;;;;;;5.03;3.37;;;;;;;3.10;100.00;100500.60;1698913;84;21404;-93
2021/01/26 08:45:53;;;;;;;4.20;3.35;;;;;;;3.23;100.00;100489.30;1728641;81;21210;-93
2021/01/26 08:56:38;;;;;;;5.10;3.72;;;;;;;3.39;100.00;100478.66;1747649;81;21128;-92
2021/01/26 09:03:43;;;;;;;4.17;3.60;;;;;;;3.54;100.00;100481.41;1745811;80;21652;-93
2021/01/26 09:14:50;;;;;;;5.45;4.10;;;;;;;3.81;100.00;100480.96;1741159;82;21138;-92
2021/01/26 09:26:13;;;;;;;7.35;5.12;;;;;;;4.06;100.00;100467.72;1729407;82;21526;-92
2021/01/26 09:37:27;;;;;;;10.15;5.40;;;;;;;4.36;100.00;100442.57;1711086;81;21173;-92
2021/01/26 09:44:20;;;;;;;8.03;5.58;;;;;;;4.47;100.00;100418.80;1741884;82;21549;-92
2021/01/26 09:50:53;;;;;;;11.68;5.20;;;;;;;4.46;100.00;100432.16;1702640;83;21578;-91
2021/01/26 09:57:45;;;;;;;8.00;4.67;;;;;;;4.49;100.00;100442.30;1794062;79;21562;-92
2021/01/26 10:04:40;;;;;;;6.83;4.87;;;;;;;4.50;100.00;100437.99;1796606;79;21474;-91
2021/01/26 10:11:18;;;;;;;9.50;4.80;;;;;;;4.47;100.00;100444.14;1714734;82;21140;-92
2021/01/26 10:18:30;;;;;;;9.15;4.92;;;;;;;4.45;100.00;100456.75;1780969;79;21181;-92
2021/01/26 10:34:35;;;;;;;11.10;4.90;;;;;;;4.47;100.00;100447.16;1784891;78;21138;-92
2021/01/26 10:45:13;;;;;;;8.58;4.90;;;;;;;4.62;100.00;100448.12;1753050;80;21181;-93
2021/01/26 10:52:08;;;;;;;13.15;6.60;;;;;;;4.87;100.00;100440.73;1755930;80;21138;-92
2021/01/26 10:59:00;;;;;;;14.83;7.53;;;;;;;4.98;100.00;100431.56;1760911;80;21883;-92
2021/01/26 11:05:51;;;;;;;19.12;9.03;;;;;;;4.88;100.00;100408.02;1761334;80;21566;-92
2021/01/26 11:12:43;;;;;;;16.90;8.85;;;;;;;4.86;100.00;100402.09;1752736;80;21096;-92
2021/01/26 11:19:35;;;;;;;20.35;10.30;;;;;;;4.78;100.00;100373.30;1776320;80;21132;-93
2021/01/26 11:26:27;;;;;;;22.95;9.48;;;;;;;4.80;100.00;100372.77;1739097;82;21571;-91
2021/01/26 11:33:20;;;;;;;20.57;9.85;;;;;;;4.90;100.00;100363.62;1787599;79;21202;-92
2021/01/26 11:40:14;;;;;;;14.45;7.12;;;;;;;5.10;100.00;100380.57;1820705;78;21052;-92
2021/01/26 11:47:09;;;;;;;17.02;7.62;;;;;;;5.14;100.00;100391.08;1818697;77;21539;-92
2021/01/26 12:02:15;;;;;;;18.40;7.80;;;;;;;4.98;100.00;100404.47;1804052;79;21055;-93
2021/01/26 12:09:07;;;;;;;12.75;6.40;;;;;;;4.92;100.00;100409.97;1770728;80;21464;-93
2021/01/26 12:15:41;;;;;;;12.95;6.05;;;;;;;4.78;100.00;100410.70;1796294;79;21087;-92
2021/01/26 12:22:33;;;;;;;12.88;5.67;;;;;;;4.75;100.00;100409.13;1804091;78;21119;-93
2021/01/26 12:29:23;;;;;;;;;;;;;;;4.74;100.00;100382.52;1773401;80;21516;-93
2021/01/26 12:36:14;;;;;;;10.45;5.50;;;;;;;4.81;100.00;100419.59;1803703;78;21139;-93
2021/01/26 12:43:08;;;;;;;11.53;5.22;;;;;;;4.78;100.00;100419.30;1777491;80;21550;-91
2021/01/26 12:54:06;;;;;;;13.05;5.53;;;;;;;4.69;100.00;100411.58;1793566;79;21161;-93
2021/01/26 13:04:08;;;;;;;177.45;56.40;;;;;;;4.64;100.00;100401.98;1795265;78;21566;-92
2021/01/26 13:10:59;;;;;;;331.10;104.87;;;;;;;4.61;100.00;100396.16;1786235;79;21145;-90
2021/01/26 13:13:34;;;;;;;234.50;82.12;;;;;;;4.61;100.00;100396.16;1789231;78;21121;-91
2021/01/26 13:24:30;;;;;;;18.10;11.57;;;;;;;4.55;100.00;100379.25;1798300;78;21349;-89
2021/01/26 13:27:02;;;;;;;24.75;13.70;;;;;;;4.54;100.00;100362.11;1814688;79;21555;-89
2021/01/26 13:29:30;;;;;;;50.83;31.70;;;;;;;4.53;100.00;100359.16;1815122;79;21157;-90
2021/01/26 13:32:06;;;;;;;50.05;32.13;;;;;;;4.53;100.00;100355.29;1789337;79;21125;-90
2021/01/26 13:34:34;;;;;;;33.35;18.62;;;;;;;4.50;100.00;100343.88;1781053;78;21099;-90
2021/01/26 13:40:33;;;;;;;18.92;8.70;;;;;;;4.49;100.00;100343.02;1815126;79;21112;-91
2021/01/26 13:46:58;;;;;;;17.85;8.78;;;;;;;4.48;100.00;100337.52;1820390;78;21047;-89
2021/01/26 13:49:26;;;;;;;11.75;5.83;;;;;;;4.49;100.00;100331.42;1809390;79;21172;-90
2021/01/26 13:55:31;;;;;;;10.25;6.47;;;;;;;4.47;100.00;100303.61;1765316;79;21539;-89
2021/01/26 13:58:06;;;;;;;14.98;7.72;;;;;;;4.48;100.00;100284.66;1792832;79;21160;-90
2021/01/26 14:00:36;;;;;;;16.32;6.97;;;;;;;4.51;100.00;100279.31;1781266;78;21106;-90
2021/01/26 14:03:06;;;;;;;17.25;6.58;;;;;;;4.54;100.00;100271.86;1789924;79;21121;-90
2021/01/26 14:06:03;;;;;;;14.50;5.40;;;;;;;4.54;100.00;100269.28;1732655;80;21153;-90
2021/01/26 14:08:32;;;;;;;12.33;4.95;;;;;;;4.50;100.00;100267.33;1707624;82;21567;-89
2021/01/26 14:11:03;;;;;;;9.40;4.80;;;;;;;4.50;100.00;100267.33;1702331;84;21583;-89
2021/01/26 14:13:33;;;;;;;;;;;;;;;4.50;100.00;100267.80;1704947;84;21223;-90
2021/01/26 14:16:01;;;;;;;102.70;60.00;;;;;;;4.50;100.00;100278.12;1740608;81;20239;-89
2021/01/26 14:18:57;;;;;;;57.75;36.95;;;;;;;4.50;100.00;100281.98;1755156;81;21445;-89
2021/01/26 14:21:25;;;;;;;33.78;22.05;;;;;;;4.47;100.00;100278.27;1755004;81;21145;-90
2021/01/26 14:23:55;;;;;;;23.75;16.93;;;;;;;4.48;100.00;100273.05;1745095;81;21146;-90
2021/01/26 14:26:58;;;;;;;20.45;12.43;;;;;;;4.60;100.00;100257.80;1806686;79;21095;-90
2021/01/26 14:29:27;;;;;;;12.55;8.15;;;;;;;4.60;100.00;100257.80;1809256;79;21087;-90
2021/01/26 14:36:21;;;;;;;20.32;8.30;;;;;;;4.69;100.00;100252.95;1780586;78;21188;-90
2021/01/26 14:38:51;;;;;;;21.55;9.05;;;;;;;4.77;100.00;100260.73;1774322;80;21143;-90
2021/01/26 14:41:29;;;;;;;30.45;10.40;;;;;;;4.79;100.00;100258.88;1774590;80;21168;-89
2021/01/26 14:43:58;;;;;;;28.38;10.45;;;;;;;4.89;100.00;100259.55;1762466;80;21511;-91
2021/01/26 14:46:30;;;;;;;25.92;8.13;;;;;;;4.97;100.00;100254.41;1799957;79;22286;-91
2021/01/26 14:48:59;;;;;;;18.25;7.50;;;;;;;4.93;100.00;100254.23;1775751;79;21220;-90
2021/01/26 14:51:30;;;;;;;18.17;7.70;;;;;;;4.87;100.00;100256.70;1770572;79;21173;-91
2021/01/26 14:54:02;;;;;;;19.23;7.25;;;;;;;4.88;100.00;100260.50;1777386;80;21589;-91
2021/01/26 14:56:30;;;;;;;;;;;;;;;4.91;100.00;100265.94;1773684;79;21206;-90
2021/01/26 14:59:07;;;;;;;212.97;85.45;;;;;;;4.94;100.00;100266.22;1770161;80;21186;-91
2021/01/26 15:01:37;;;;;;;207.40;87.00;;;;;;;4.95;100.00;100284.19;1770388;80;21171;-91
2021/01/26 15:04:05;;;;;;;229.68;115.28;;;;;;;4.95;100.00;100284.19;1770391;80;21056;-90
2021/01/26 15:06:33;;;;;;;176.75;90.03;;;;;;;4.96;100.00;100285.03;1798347;78;21051;-90
2021/01/26 15:09:04;;;;;;;81.10;44.63;;;;;;;4.98;100.00;100287.89;1803237;78;21138;-90
2021/01/26 15:11:36;;;;;;;50.90;26.02;;;;;;;4.97;100.00;100278.48;1800009;79;21244;-91
2021/01/26 15:14:05;;;;;;;27.05;15.18;;;;;;;4.97;100.00;100273.77;1779760;78;21078;-91
2021/01/26 15:16:34;;;;;;;23.27;13.38;;;;;;;4.97;100.00;100266.02;1770659;79;21178;-91
2021/01/26 15:19:04;;;;;;;23.90;13.50;;;;;;;4.95;100.00;100261.44;1770204;79;21151;-91
2021/01/26 15:21:34;;;;;;;21.60;12.37;;;;;;;4.98;100.00;100269.83;1770628;80;21845;-91
2021/01/26 15:24:02;;;;;;;16.70;7.22;;;;;;;5.00;100.00;100251.67;1770005;80;21355;-91
2021/01/26 15:26:32;;;;;;;11.50;6.58;;;;;;;5.11;100.00;100251.89;1769906;79;21127;-91
2021/01/26 15:29:02;;;;;;;12.20;6.03;;;;;;;5.12;100.00;100247.55;1770404;80;21123;-91
2021/01/26 15:31:30;;;;;;;12.60;6.20;;;;;;;5.12;100.00;100247.55;1770737;80;21114;-90
2021/01/26 15:33:59;;;;;;;8.78;5.85;;;;;;;5.13;100.00;100260.83;1770239;81;21198;-90
2021/01/26 15:36:27;;;;;;;11.70;4.45;;;;;;;5.05;100.00;100269.00;1775446;79;22138;-91
2021/01/26 15:38:55;;;;;;;96.20;42.10;;;;;;;5.05;100.00;100269.00;1778805;78;21117;-90
2021/01/26 15:41:24;;;;;;;193.45;87.72;;;;;;;5.03;100.00;100269.57;1746572;80;21117;-91
2021/01/26 15:43:52;;;;;;;241.40;111.77;;;;;;;4.97;100.00;100258.28;1766117;80;21161;-91
2021/01/26 15:46:22;;;;;;;186.30;91.65;;;;;;;4.96;100.00;100257.47;1746782;80;21157;-91
2021/01/26 15:48:50;;;;;;;105.30;51.10;;;;;;;4.94;100.00;100243.81;1746494;82;21196;-91
2021/01/26 15:51:18;;;;;;;76.02;42.15;;;;;;;4.94;100.00;100237.36;1772018;80;21169;-91
2021/01/26 15:54:23;;;;;;;69.90;41.50;;;;;;;4.95;100.00;100236.45;1772402;79;21105;-91
2021/01/26 15:57:21;;;;;;;36.08;22.87;;;;;;;4.98;100.00;100246.61;1766346;79;21134;-92
2021/01/26 15:59:57;;;;;;;23.90;14.90;;;;;;;4.98;100.00;100246.61;1781244;78;21192;-91
2021/01/26 16:02:27;;;;;;;17.45;8.30;;;;;;;5.00;100.00;100230.58;1746655;81;21195;-93
2021/01/26 16:04:58;;;;;;;11.17;6.73;;;;;;;5.01;100.00;100242.54;1759081;80;21618;-92
2021/01/26 16:11:27;;;;;;;10.45;4.37;;;;;;;5.06;100.00;100228.08;1759993;80;21169;-92
2021/01/26 16:14:03;;;;;;;8.23;3.62;;;;;;;5.05;100.00;100235.01;1777604;79;21201;-92
2021/01/26 16:16:39;;;;;;;10.32;4.08;;;;;;;4.99;100.00;100203.11;1777423;80;21165;-93
2021/01/26 16:19:14;;;;;;;6.42;3.15;;;;;;;4.94;100.00;100199.13;1782702;79;21516;-92
2021/01/26 16:21:45;;;;;;;9.13;3.20;;;;;;;4.94;100.00;100203.00;1767093;80;21173;-92
2021/01/26 16:24:17;;;;;;;8.68;3.58;;;;;;;4.94;100.00;100196.08;1746725;82;21097;-92
2021/01/26 16:34:14;;;;;;;65.52;41.92;;;;;;;4.93;100.00;100193.13;1803901;79;21044;-93
2021/01/26 16:36:43;;;;;;;41.33;29.25;;;;;;;4.96;100.00;100192.14;1803906;79;21123;-92
2021/01/26 16:39:15;;;;;;;25.00;15.25;;;;;;;5.01;100.00;100185.77;1788968;79;21602;-93
2021/01/26 16:41:43;;;;;;;17.65;10.23;;;;;;;5.01;100.00;100185.77;1759148;80;21125;-92
2021/01/26 16:51:07;;;;;;;13.10;6.20;;;;;;;5.18;100.00;100174.91;1753994;80;21134;-91
2021/01/26 16:54:04;;;;;;;;;;;;;;;5.28;100.00;100179.08;1752410;80;21113;-91
2021/01/26 16:56:32;;;;;;;8.35;3.00;;;;;;;5.37;100.00;100188.39;1788252;79;20245;-91
2021/01/26 16:59:01;;;;;;;6.17;2.77;;;;;;;5.43;100.00;100189.78;1800701;78;21339;-91
2021/01/26 17:01:33;;;;;;;5.97;2.30;;;;;;;5.48;100.00;100192.08;1812270;78;21121;-91
2021/01/26 17:12:45;;;;;;;9.53;4.12;;;;;;;5.56;100.00;100173.52;1775199;80;21120;-92
2021/01/26 17:19:46;;;;;;;8.45;4.12;;;;;;;5.53;100.00;100161.63;1804607;79;21083;-92
2021/01/26 17:22:23;;;;;;;11.63;4.95;;;;;;;5.54;100.00;100163.30;1796361;79;21572;-91
2021/01/26 17:24:51;;;;;;;9.65;4.05;;;;;;;5.52;100.00;100160.81;1796303;79;21565;-91
2021/01/26 17:31:19;;;;;;;154.20;68.20;;;;;;;5.51;100.00;100158.30;1763195;81;21114;-90
2021/01/26 17:33:48;;;;;;;135.20;56.68;;;;;;;5.47;100.00;100152.97;1782819;78;21592;-91
2021/01/26 17:47:51;;;;;;;20.45;8.38;;;;;;;5.47;100.00;100151.68;1803864;79;21158;-91
2021/01/26 18:07:03;;;;;;;14.87;6.92;;;;;;;5.45;100.00;100175.47;1809227;79;21163;-91
2021/01/26 18:09:37;;;;;;;12.30;6.20;;;;;;;5.52;100.00;100169.00;1800726;78;21155;-91
2021/01/26 18:12:06;;;;;;;8.00;5.03;;;;;;;5.50;100.00;100171.69;1809177;79;21144;-91
2021/01/26 18:14:34;;;;;;;12.25;5.40;;;;;;;5.40;100.00;100184.78;1799673;79;21529;-91
2021/01/26 18:17:04;;;;;;;12.82;5.95;;;;;;;5.26;100.00;100210.13;1796153;79;21153;-92
2021/01/26 18:19:35;;;;;;;9.53;4.72;;;;;;;5.19;100.00;100206.25;1804437;79;21198;-93
2021/01/26 18:22:04;;;;;;;10.70;5.55;;;;;;;5.17;100.00;100202.92;1800835;79;21118;-92
2021/01/26 18:31:56;;;;;;;9.93;6.12;;;;;;;5.35;100.00;100207.00;1804655;79;21581;-92
2021/01/26 18:34:25;;;;;;;12.20;6.17;;;;;;;5.43;100.00;100196.23;1796218;79;21440;-93
2021/01/26 18:40:24;;;;;;;22.95;14.18;;;;;;;5.52;100.00;100198.27;1780376;78;21140;-93
2021/01/26 18:42:54;;;;;;;25.43;12.60;;;;;;;5.59;100.00;100175.93;1774562;80;21088;-92
2021/01/26 18:45:58;;;;;;;19.55;10.03;;;;;;;5.63;100.00;100177.38;1775057;80;21144;-93
2021/01/26 19:02:12;;;;;;;26.73;13.13;;;;;;;5.92;100.00;100200.13;1774217;80;21097;-92
2021/01/26 19:16:16;;;;;;;27.95;11.40;;;;;;;5.77;100.00;100207.06;1765010;81;21086;-94
2021/01/26 19:23:08;;;;;;;26.48;11.57;;;;;;;5.62;100.00;100217.89;1812591;79;21150;-94
2021/01/26 19:34:00;;;;;;;24.43;16.20;;;;;;;5.22;100.00;100217.70;1804067;79;21155;-93
2021/01/26 19:40:52;;;;;;;35.58;21.75;;;;;;;5.15;100.00;100219.80;1769383;79;21537;-93
2021/01/26 19:47:46;;;;;;;36.30;22.58;;;;;;;4.97;100.00;100224.73;1781935;78;21194;-93
2021/01/26 20:01:43;;;;;;;34.43;22.77;;;;;;;4.78;100.00;100236.14;1804566;79;21170;-92
2021/01/26 20:07:45;;;;;;;45.10;29.32;;;;;;;4.63;100.00;100242.16;1796108;79;21110;-92
2021/01/26 20:10:18;;;;;;;40.65;26.75;;;;;;;4.63;100.00;100242.16;1760359;79;21472;-91
2021/01/26 20:12:47;;;;;;;;;;;;;;;4.46;100.00;100249.53;1785291;79;21420;-91
2021/01/26 20:15:18;;;;;;;34.90;22.77;;;;;;;4.34;100.00;100258.77;1777410;79;20472;-91
2021/01/26 20:17:50;;;;;;;41.05;25.92;;;;;;;4.21;100.00;100262.47;1777514;79;21089;-90
2021/01/26 20:20:22;;;;;;;37.25;22.65;;;;;;;4.03;100.00;100249.69;1775862;79;21163;-92
2021/01/26 20:22:51;;;;;;;32.98;22.00;;;;;;;3.87;100.00;100250.95;1804007;79;21600;-91
2021/01/26 20:25:22;;;;;;;30.77;20.35;;;;;;;3.72;100.00;100250.03;1803900;78;21514;-91
2021/01/26 20:28:25;;;;;;;26.62;16.70;;;;;;;3.59;100.00;100254.98;1803871;79;21048;-92
2021/01/26 20:31:03;;;;;;;22.17;14.50;;;;;;;3.47;100.00;100255.16;1788423;79;21151;-91
2021/01/26 20:37:50;;;;;;;23.30;15.13;;;;;;;3.29;100.00;100260.77;1770848;80;21131;-92
2021/01/26 20:40:23;;;;;;;21.17;13.80;;;;;;;3.15;100.00;100267.91;1777083;79;22082;-91
2021/01/26 20:46:20;;;;;;;25.05;16.25;;;;;;;3.01;100.00;100252.30;1803280;78;21145;-92
2021/01/26 20:48:50;;;;;;;26.33;15.80;;;;;;;2.95;100.00;100256.03;1807612;78;21118;-91